createdAt,value
2018-05-04T00:00:14.253Z,0
2018-05-04T00:01:24.232Z,0
2018-05-04T00:02:33.939Z,0
2018-05-04T00:03:43.896Z,0
2018-05-04T00:04:53.953Z,0
2018-05-04T00:06:03.922Z,0
2018-05-04T00:07:13.943Z,0
2018-05-04T00:08:23.919Z,0
2018-05-04T00:09:33.614Z,0
2018-05-04T00:10:43.084Z,0
2018-05-04T00:11:52.801Z,0
2018-05-04T00:13:02.781Z,0
2018-05-04T00:14:12.763Z,0
2018-05-04T00:15:22.734Z,0
2018-05-04T00:16:32.446Z,0
2018-05-04T00:17:42.415Z,0
2018-05-04T00:18:52.393Z,0
2018-05-04T00:20:02.363Z,0
2018-05-04T00:21:12.085Z,0
2018-05-04T00:22:22.054Z,0
2018-05-04T00:23:32.009Z,0
2018-05-04T00:24:41.474Z,0
2018-05-04T00:25:51.454Z,0
2018-05-04T00:27:01.155Z,0
2018-05-04T00:28:10.874Z,0
2018-05-04T00:29:20.845Z,0
2018-05-04T00:30:30.822Z,0
2018-05-04T00:31:40.798Z,0
2018-05-04T00:32:50.822Z,0
2018-05-04T00:34:00.798Z,0
2018-05-04T00:35:10.521Z,0
2018-05-04T00:36:20.497Z,0
2018-05-04T00:37:30.463Z,0
2018-05-04T00:38:40.436Z,0
2018-05-04T00:39:50.404Z,0
2018-05-04T00:41:00.380Z,0
2018-05-04T00:42:10.342Z,0
2018-05-04T00:43:20.307Z,0
2018-05-04T00:44:30.015Z,0
2018-05-04T00:45:39.986Z,0
2018-05-04T00:46:49.434Z,0
2018-05-04T00:47:59.152Z,0
2018-05-04T00:49:09.120Z,0
2018-05-04T00:50:18.838Z,0
2018-05-04T00:51:28.800Z,0
2018-05-04T00:52:38.768Z,0
2018-05-04T00:53:48.729Z,0
2018-05-04T00:54:58.700Z,0
2018-05-04T00:56:08.667Z,0
2018-05-04T00:57:18.372Z,0
2018-05-04T00:58:28.355Z,0
2018-05-04T00:59:38.413Z,0
2018-05-04T01:00:48.395Z,0
2018-05-04T01:01:58.375Z,0
2018-05-04T01:03:08.337Z,0
2018-05-04T01:04:18.045Z,0
2018-05-04T01:05:27.762Z,0
2018-05-04T01:06:37.729Z,0
2018-05-04T01:07:47.693Z,0
2018-05-04T01:08:57.407Z,0
2018-05-04T01:10:07.385Z,0
2018-05-04T01:11:17.097Z,0
2018-05-04T01:12:27.066Z,0
2018-05-04T01:13:37.034Z,0
2018-05-04T01:14:46.739Z,0
2018-05-04T01:15:56.715Z,0
2018-05-04T01:17:06.679Z,0
2018-05-04T01:18:16.646Z,0
2018-05-04T01:19:26.638Z,0
2018-05-04T01:20:36.603Z,0
2018-05-04T01:21:46.568Z,0
2018-05-04T01:22:56.534Z,0
2018-05-04T01:24:06.258Z,0
2018-05-04T01:25:15.966Z,0
2018-05-04T01:26:25.934Z,0
2018-05-04T01:27:35.384Z,0
2018-05-04T01:28:44.830Z,0
2018-05-04T01:29:54.852Z,0
2018-05-04T01:31:04.314Z,0
2018-05-04T01:32:14.285Z,0
2018-05-04T01:33:23.999Z,0
2018-05-04T01:34:33.966Z,0
2018-05-04T01:35:43.922Z,0
2018-05-04T01:36:53.376Z,0
2018-05-04T01:38:03.083Z,0
2018-05-04T01:39:13.059Z,0
2018-05-04T01:40:23.040Z,0
2018-05-04T01:41:32.759Z,0
2018-05-04T01:42:42.200Z,0
2018-05-04T01:43:51.673Z,0
2018-05-04T01:45:01.632Z,0
2018-05-04T01:46:11.608Z,0
2018-05-04T01:47:21.579Z,0
2018-05-04T01:48:31.286Z,0
2018-05-04T01:49:41.272Z,0
2018-05-04T01:50:50.711Z,0
2018-05-04T01:52:00.676Z,0
2018-05-04T01:53:10.129Z,0
2018-05-04T01:54:19.832Z,0
2018-05-04T01:55:29.537Z,0
2018-05-04T01:56:38.981Z,0
2018-05-04T01:57:48.944Z,0
2018-05-04T01:58:58.659Z,0
2018-05-04T02:00:08.636Z,0
2018-05-04T02:01:18.629Z,0
2018-05-04T02:02:28.589Z,0
2018-05-04T02:03:38.563Z,0
2018-05-04T02:04:48.535Z,0
2018-05-04T02:05:58.247Z,0
2018-05-04T02:07:08.220Z,0
2018-05-04T02:08:18.195Z,0
2018-05-04T02:09:27.901Z,0
2018-05-04T02:10:37.600Z,0
2018-05-04T02:11:47.305Z,0
2018-05-04T02:12:57.278Z,0
2018-05-04T02:14:06.992Z,0
2018-05-04T02:15:16.693Z,0
2018-05-04T02:16:26.398Z,0
2018-05-04T02:17:36.377Z,0
2018-05-04T02:18:46.344Z,0
2018-05-04T02:19:56.320Z,0
2018-05-04T02:21:06.319Z,0
2018-05-04T02:22:16.285Z,0
2018-05-04T02:23:26.247Z,0
2018-05-04T02:24:36.207Z,0
2018-05-04T02:25:45.652Z,0
2018-05-04T02:26:55.112Z,0
2018-05-04T02:28:05.075Z,0
2018-05-04T02:29:14.784Z,0
2018-05-04T02:30:24.749Z,0
2018-05-04T02:31:34.800Z,0
2018-05-04T02:32:44.769Z,0
2018-05-04T02:33:54.472Z,0
2018-05-04T02:35:04.452Z,0
2018-05-04T02:36:14.417Z,0
2018-05-04T02:37:24.145Z,0
2018-05-04T02:38:33.859Z,0
2018-05-04T02:39:43.836Z,0
2018-05-04T02:40:53.814Z,0
2018-05-04T02:42:03.793Z,0
2018-05-04T02:43:13.856Z,0
2018-05-04T02:44:23.830Z,0
2018-05-04T02:45:33.795Z,0
2018-05-04T02:46:43.755Z,0
2018-05-04T02:47:53.473Z,0
2018-05-04T02:49:03.455Z,0
2018-05-04T02:50:13.428Z,0
2018-05-04T02:51:23.398Z,0
2018-05-04T02:52:33.378Z,0
2018-05-04T02:53:43.366Z,0
2018-05-04T02:54:53.332Z,0
2018-05-04T02:56:02.776Z,0
2018-05-04T02:57:12.490Z,0
2018-05-04T02:58:22.208Z,0
2018-05-04T02:59:31.929Z,0
2018-05-04T03:00:41.381Z,0
2018-05-04T03:01:51.360Z,0
2018-05-04T03:03:01.080Z,0
2018-05-04T03:04:11.327Z,0
2018-05-04T03:05:21.306Z,0
2018-05-04T03:06:31.282Z,0
2018-05-04T03:07:41.000Z,0
2018-05-04T03:08:50.989Z,0
2018-05-04T03:10:00.950Z,0
2018-05-04T03:11:10.935Z,0
2018-05-04T03:12:20.893Z,0
2018-05-04T03:13:30.862Z,0
2018-05-04T03:14:40.840Z,0
2018-05-04T03:15:50.795Z,0
2018-05-04T03:17:00.763Z,0
2018-05-04T03:18:10.464Z,0
2018-05-04T03:19:20.439Z,5
2018-05-04T03:20:30.412Z,5
2018-05-04T03:21:40.133Z,5
2018-05-04T03:22:50.099Z,5
2018-05-04T03:24:00.082Z,5
2018-05-04T03:25:10.106Z,5
2018-05-04T03:26:20.066Z,10
2018-05-04T03:27:29.516Z,10
2018-05-04T03:28:39.224Z,10
2018-05-04T03:29:49.196Z,10
2018-05-04T03:30:59.183Z,15
2018-05-04T03:32:08.881Z,15
2018-05-04T03:33:18.847Z,15
2018-05-04T03:34:28.823Z,20
2018-05-04T03:35:38.526Z,20
2018-05-04T03:36:47.714Z,20
2018-05-04T03:37:57.691Z,25
2018-05-04T03:39:07.652Z,25
2018-05-04T03:40:17.366Z,30
2018-05-04T03:41:27.068Z,35
2018-05-04T03:42:36.781Z,35
2018-05-04T03:43:46.753Z,40
2018-05-04T03:44:56.477Z,45
2018-05-04T03:46:06.450Z,45
2018-05-04T03:47:16.149Z,45
2018-05-04T03:48:26.104Z,50
2018-05-04T03:49:35.812Z,50
2018-05-04T03:50:45.783Z,55
2018-05-04T03:51:55.765Z,55
2018-05-04T03:53:05.752Z,60
2018-05-04T03:54:15.461Z,60
2018-05-04T03:55:25.168Z,60
2018-05-04T03:56:35.142Z,65
2018-05-04T03:57:45.110Z,70
2018-05-04T03:58:55.078Z,70
2018-05-04T04:00:05.050Z,75
2018-05-04T04:01:15.021Z,75
2018-05-04T04:02:25.140Z,80
2018-05-04T04:03:34.864Z,80
2018-05-04T04:04:44.834Z,85
2018-05-04T04:05:54.542Z,90
2018-05-04T04:07:04.507Z,90
2018-05-04T04:08:14.468Z,95
2018-05-04T04:09:23.910Z,95
2018-05-04T04:10:33.623Z,100
2018-05-04T04:11:43.586Z,100
2018-05-04T04:12:53.557Z,105
2018-05-04T04:14:03.535Z,105
2018-05-04T04:15:13.515Z,110
2018-05-04T04:16:23.487Z,110
2018-05-04T04:17:33.469Z,115
2018-05-04T04:18:43.447Z,120
2018-05-04T04:19:53.662Z,120
2018-05-04T04:21:03.655Z,125
2018-05-04T04:22:13.621Z,125
2018-05-04T04:23:23.604Z,130
2018-05-04T04:24:33.572Z,130
2018-05-04T04:25:43.537Z,135
2018-05-04T04:26:53.502Z,135
2018-05-04T04:28:03.218Z,140
2018-05-04T04:29:12.933Z,140
2018-05-04T04:30:22.921Z,145
2018-05-04T04:31:32.883Z,145
2018-05-04T04:32:42.852Z,150
2018-05-04T04:33:52.557Z,150
2018-05-04T04:35:02.533Z,150
2018-05-04T04:36:12.513Z,155
2018-05-04T04:37:22.243Z,155
2018-05-04T04:38:32.231Z,160
2018-05-04T04:39:41.943Z,160
2018-05-04T04:40:51.399Z,165
2018-05-04T04:42:01.124Z,165
2018-05-04T04:43:10.844Z,165
2018-05-04T04:44:20.826Z,170
2018-05-04T04:45:31.012Z,170
2018-05-04T04:46:40.995Z,175
2018-05-04T04:47:50.701Z,175
2018-05-04T04:49:00.405Z,175
2018-05-04T04:50:10.372Z,180
2018-05-04T04:51:20.351Z,180
2018-05-04T04:52:30.323Z,180
2018-05-04T04:53:40.315Z,185
2018-05-04T04:54:49.770Z,185
2018-05-04T04:55:59.748Z,185
2018-05-04T04:57:09.465Z,190
2018-05-04T04:58:19.441Z,190
2018-05-04T04:59:29.414Z,190
2018-05-04T05:00:39.376Z,195
2018-05-04T05:01:49.470Z,195
2018-05-04T05:02:59.196Z,195
2018-05-04T05:04:08.910Z,195
2018-05-04T05:05:18.871Z,195
2018-05-04T05:06:28.837Z,200
2018-05-04T05:07:38.555Z,200
2018-05-04T05:08:48.266Z,200
2018-05-04T05:09:58.246Z,200
2018-05-04T05:11:08.223Z,205
2018-05-04T05:12:17.926Z,205
2018-05-04T05:13:27.491Z,205
2018-05-04T05:14:37.576Z,210
2018-05-04T05:15:47.278Z,210
2018-05-04T05:16:57.259Z,210
2018-05-04T05:18:07.251Z,215
2018-05-04T05:19:17.307Z,215
2018-05-04T05:20:27.332Z,215
2018-05-04T05:21:37.320Z,215
2018-05-04T05:22:47.291Z,220
2018-05-04T05:23:57.463Z,220
2018-05-04T05:25:07.436Z,220
2018-05-04T05:26:17.423Z,220
2018-05-04T05:27:27.136Z,225
2018-05-04T05:28:37.108Z,225
2018-05-04T05:29:46.893Z,225
2018-05-04T05:30:56.344Z,225
2018-05-04T05:32:06.072Z,230
2018-05-04T05:33:16.034Z,230
2018-05-04T05:34:26.011Z,230
2018-05-04T05:35:36.090Z,230
2018-05-04T05:36:46.074Z,235
2018-05-04T05:37:56.062Z,235
2018-05-04T05:39:05.789Z,235
2018-05-04T05:40:15.612Z,235
2018-05-04T05:41:25.588Z,235
2018-05-04T05:42:35.827Z,245
2018-05-04T05:43:45.838Z,240
2018-05-04T05:44:55.810Z,240
2018-05-04T05:46:05.767Z,240
2018-05-04T05:47:15.487Z,240
2018-05-04T05:48:25.474Z,245
2018-05-04T05:49:35.689Z,245
2018-05-04T05:50:45.406Z,245
2018-05-04T05:51:55.571Z,250
2018-05-04T05:53:05.262Z,250
2018-05-04T05:54:15.233Z,250
2018-05-04T05:55:24.979Z,250
2018-05-04T05:56:34.710Z,250
2018-05-04T05:57:44.701Z,255
2018-05-04T05:58:54.685Z,255
2018-05-04T06:00:04.407Z,255
2018-05-04T06:01:14.123Z,255
2018-05-04T06:02:24.140Z,255
2018-05-04T06:03:34.121Z,255
2018-05-04T06:04:44.114Z,260
2018-05-04T06:05:54.114Z,260
2018-05-04T06:07:04.086Z,260
2018-05-04T06:08:14.092Z,260
2018-05-04T06:09:24.444Z,260
2018-05-04T06:10:34.445Z,265
2018-05-04T06:11:44.173Z,265
2018-05-04T06:12:54.175Z,265
2018-05-04T06:14:04.170Z,265
2018-05-04T06:15:14.520Z,265
2018-05-04T06:16:24.489Z,265
2018-05-04T06:17:34.484Z,270
2018-05-04T06:18:43.950Z,270
2018-05-04T06:19:53.926Z,270
2018-05-04T06:21:03.665Z,270
2018-05-04T06:22:13.652Z,270
2018-05-04T06:23:23.672Z,275
2018-05-04T06:24:33.697Z,275
2018-05-04T06:25:43.693Z,275
2018-05-04T06:26:53.672Z,280
2018-05-04T06:28:03.390Z,280
2018-05-04T06:29:13.116Z,280
2018-05-04T06:30:23.110Z,285
2018-05-04T06:31:32.870Z,285
2018-05-04T06:32:42.905Z,290
2018-05-04T06:33:52.841Z,290
2018-05-04T06:35:02.928Z,290
2018-05-04T06:36:12.915Z,295
2018-05-04T06:37:22.913Z,295
2018-05-04T06:38:32.903Z,295
2018-05-04T06:39:43.093Z,300
2018-05-04T06:40:52.555Z,300
2018-05-04T06:42:02.546Z,300
2018-05-04T06:43:12.533Z,305
2018-05-04T06:44:22.537Z,305
2018-05-04T06:45:32.548Z,305
2018-05-04T06:46:42.540Z,305
2018-05-04T06:47:52.269Z,305
2018-05-04T06:49:02.275Z,305
2018-05-04T06:50:12.270Z,305
2018-05-04T06:51:22.015Z,305
2018-05-04T06:52:32.009Z,305
2018-05-04T06:53:41.735Z,305
2018-05-04T06:54:51.514Z,310
2018-05-04T06:56:00.993Z,310
2018-05-04T06:57:10.980Z,310
2018-05-04T06:58:20.738Z,310
2018-05-04T06:59:30.956Z,310
2018-05-04T07:00:40.678Z,315
2018-05-04T07:01:50.659Z,315
2018-05-04T07:03:00.649Z,315
2018-05-04T07:04:10.739Z,315
2018-05-04T07:05:20.872Z,315
2018-05-04T07:06:30.890Z,320
2018-05-04T07:07:40.615Z,320
2018-05-04T07:08:50.682Z,320
2018-05-04T07:10:00.687Z,320
2018-05-04T07:11:10.661Z,325
2018-05-04T07:12:20.652Z,325
2018-05-04T07:13:31.027Z,325
2018-05-04T07:14:41.025Z,325
2018-05-04T07:15:50.783Z,325
2018-05-04T07:17:00.775Z,330
2018-05-04T07:18:10.490Z,330
2018-05-04T07:19:20.483Z,330
2018-05-04T07:20:30.217Z,330
2018-05-04T07:21:39.960Z,335
2018-05-04T07:22:49.680Z,335
2018-05-04T07:23:59.674Z,335
2018-05-04T07:25:09.426Z,335
2018-05-04T07:26:19.401Z,340
2018-05-04T07:27:28.879Z,340
2018-05-04T07:28:38.982Z,340
2018-05-04T07:29:48.691Z,340
2018-05-04T07:30:58.678Z,345
2018-05-04T07:32:08.158Z,345
2018-05-04T07:33:17.884Z,345
2018-05-04T07:34:27.893Z,345
2018-05-04T07:35:37.648Z,345
2018-05-04T07:36:47.635Z,350
2018-05-04T07:37:57.628Z,350
2018-05-04T07:39:07.359Z,350
2018-05-04T07:40:17.354Z,350
2018-05-04T07:41:27.074Z,360
2018-05-04T07:42:36.797Z,355
2018-05-04T07:43:46.614Z,360
2018-05-04T07:44:56.328Z,355
2018-05-04T07:46:06.322Z,355
2018-05-04T07:47:16.307Z,355
2018-05-04T07:48:25.769Z,360
2018-05-04T07:49:35.749Z,360
2018-05-04T07:50:45.732Z,360
2018-05-04T07:51:55.703Z,360
2018-05-04T07:53:05.424Z,360
2018-05-04T07:54:15.395Z,365
2018-05-04T07:55:25.626Z,365
2018-05-04T07:56:35.357Z,365
2018-05-04T07:57:45.341Z,365
2018-05-04T07:58:55.053Z,365
2018-05-04T08:00:05.019Z,370
2018-05-04T08:01:15.012Z,370
2018-05-04T08:02:24.988Z,370
2018-05-04T08:03:34.986Z,375
2018-05-04T08:04:44.997Z,375
2018-05-04T08:05:54.966Z,375
2018-05-04T08:07:04.693Z,375
2018-05-04T08:08:14.743Z,375
2018-05-04T08:09:24.459Z,380
2018-05-04T08:10:34.432Z,375
2018-05-04T08:11:44.407Z,375
2018-05-04T08:12:54.389Z,380
2018-05-04T08:14:04.379Z,380
2018-05-04T08:15:14.087Z,380
2018-05-04T08:16:23.825Z,385
2018-05-04T08:17:33.813Z,385
2018-05-04T08:18:43.541Z,390
2018-05-04T08:19:53.298Z,390
2018-05-04T08:21:03.306Z,390
2018-05-04T08:22:13.301Z,395
2018-05-04T08:23:23.061Z,635
2018-05-04T08:24:32.552Z,1040
2018-05-04T08:25:42.568Z,1085
2018-05-04T08:26:52.904Z,1050
2018-05-04T08:28:02.645Z,1095
2018-05-04T08:29:12.647Z,1095
2018-05-04T08:30:22.113Z,1030
2018-05-04T08:31:32.144Z,1080
2018-05-04T08:32:42.159Z,1170
2018-05-04T08:33:51.955Z,1165
2018-05-04T08:35:02.096Z,1225
2018-05-04T08:36:12.382Z,1255
2018-05-04T08:37:21.864Z,1215
2018-05-04T08:38:31.863Z,1235
2018-05-04T08:39:41.610Z,1290
2018-05-04T08:40:51.984Z,1150
2018-05-04T08:42:02.091Z,1365
2018-05-04T08:43:12.710Z,1470
2018-05-04T08:44:22.442Z,1255
2018-05-04T08:45:32.459Z,1420
2018-05-04T08:46:42.444Z,1330
2018-05-04T08:47:52.529Z,1385
2018-05-04T08:49:02.244Z,1410
2018-05-04T08:50:12.236Z,1380
2018-05-04T08:51:22.318Z,1430
2018-05-04T08:52:31.805Z,1450
2018-05-04T08:53:41.789Z,1575
2018-05-04T08:54:51.493Z,1440
2018-05-04T08:56:01.499Z,1405
2018-05-04T08:57:11.820Z,1420
2018-05-04T08:58:21.881Z,1485
2018-05-04T08:59:31.850Z,1425
2018-05-04T09:00:41.334Z,1445
2018-05-04T09:01:51.314Z,1440
2018-05-04T09:03:01.032Z,1390
2018-05-04T09:04:11.337Z,1475
2018-05-04T09:05:21.541Z,1610
2018-05-04T09:06:31.250Z,1480
2018-05-04T09:07:41.263Z,1465
2018-05-04T09:08:51.013Z,1680
2018-05-04T09:10:01.056Z,1645
2018-05-04T09:11:10.822Z,1560
2018-05-04T09:12:20.589Z,1645
2018-05-04T09:13:30.592Z,1600
2018-05-04T09:14:40.318Z,1615
2018-05-04T09:15:50.315Z,1605
2018-05-04T09:16:59.836Z,1565
2018-05-04T09:18:09.828Z,1660
2018-05-04T09:19:19.838Z,1685
2018-05-04T09:20:29.842Z,1655
2018-05-04T09:21:39.547Z,1735
2018-05-04T09:22:49.556Z,1695
2018-05-04T09:23:59.296Z,1580
2018-05-04T09:25:09.246Z,1770
2018-05-04T09:26:18.966Z,1725
2018-05-04T09:27:28.966Z,1765
2018-05-04T09:28:38.955Z,1880
2018-05-04T09:29:48.720Z,1810
2018-05-04T09:30:59.018Z,1910
2018-05-04T09:32:09.039Z,1940
2018-05-04T09:33:18.778Z,1885
2018-05-04T09:34:28.751Z,1940
2018-05-04T09:35:38.718Z,1970
2018-05-04T09:36:48.476Z,1995
2018-05-04T09:37:58.450Z,2010
2018-05-04T09:39:08.646Z,1950
2018-05-04T09:40:18.403Z,1920
2018-05-04T09:41:28.605Z,2025
2018-05-04T09:42:38.616Z,2100
2018-05-04T09:43:48.358Z,2045
2018-05-04T09:44:58.382Z,2025
2018-05-04T09:46:08.102Z,2005
2018-05-04T09:47:17.846Z,1935
2018-05-04T09:48:27.602Z,1935
2018-05-04T09:49:37.348Z,1990
2018-05-04T09:50:47.372Z,2005
2018-05-04T09:51:57.143Z,2035
2018-05-04T09:53:06.878Z,2130
2018-05-04T09:54:16.901Z,2220
2018-05-04T09:55:26.891Z,2190
2018-05-04T09:56:36.885Z,2115
2018-05-04T09:57:46.907Z,2195
2018-05-04T09:58:56.722Z,2030
2018-05-04T10:00:06.475Z,1960
2018-05-04T10:01:16.472Z,2085
2018-05-04T10:02:25.958Z,2185
2018-05-04T10:03:35.669Z,2165
2018-05-04T10:04:45.144Z,2205
2018-05-04T10:05:55.163Z,2425
2018-05-04T10:07:04.892Z,2320
2018-05-04T10:08:14.624Z,2285
2018-05-04T10:09:24.475Z,2200
2018-05-04T10:10:34.202Z,2160
2018-05-04T10:11:44.197Z,2175
2018-05-04T10:12:54.266Z,2245
2018-05-04T10:14:04.265Z,2430
2018-05-04T10:15:14.289Z,2375
2018-05-04T10:16:24.025Z,2350
2018-05-04T10:17:34.030Z,2350
2018-05-04T10:18:44.025Z,2320
2018-05-04T10:19:53.778Z,2365
2018-05-04T10:21:03.813Z,2355
2018-05-04T10:22:13.799Z,2345
2018-05-04T10:23:23.774Z,2405
2018-05-04T10:24:33.802Z,2490
2018-05-04T10:25:43.787Z,2510
2018-05-04T10:26:53.538Z,2400
2018-05-04T10:28:03.029Z,2380
2018-05-04T10:29:12.546Z,2465
2018-05-04T10:30:22.548Z,2585
2018-05-04T10:31:32.860Z,2590
2018-05-04T10:32:42.897Z,2555
2018-05-04T10:33:53.173Z,2515
2018-05-04T10:35:02.628Z,2485
2018-05-04T10:36:12.439Z,2500
2018-05-04T10:37:22.201Z,2590
2018-05-04T10:38:32.421Z,2675
2018-05-04T10:39:42.714Z,2670
2018-05-04T10:40:52.440Z,2525
2018-05-04T10:42:02.474Z,2445
2018-05-04T10:43:12.487Z,2570
2018-05-04T10:44:22.463Z,2645
2018-05-04T10:45:32.478Z,2570
2018-05-04T10:46:42.523Z,2635
2018-05-04T10:47:52.014Z,2745
2018-05-04T10:49:01.769Z,2660
2018-05-04T10:50:11.831Z,2555
2018-05-04T10:51:21.866Z,2540
2018-05-04T10:52:31.351Z,2530
2018-05-04T10:53:41.048Z,2485
2018-05-04T10:54:51.053Z,2510
2018-05-04T10:56:01.066Z,2625
2018-05-04T10:57:11.226Z,2605
2018-05-04T10:58:20.971Z,2560
2018-05-04T10:59:30.735Z,2695
2018-05-04T11:00:40.708Z,2835
2018-05-04T11:01:49.916Z,2645
2018-05-04T11:02:59.902Z,2510
2018-05-04T11:04:09.896Z,2765
2018-05-04T11:05:19.957Z,2925
2018-05-04T11:06:30.053Z,2880
2018-05-04T11:07:39.784Z,2780
2018-05-04T11:08:49.540Z,2830
2018-05-04T11:09:59.540Z,2890
2018-05-04T11:11:09.571Z,2770
2018-05-04T11:12:19.580Z,2690
2018-05-04T11:13:29.586Z,2700
2018-05-04T11:14:39.875Z,2720
2018-05-04T11:15:49.889Z,2830
2018-05-04T11:17:00.158Z,2875
2018-05-04T11:18:10.151Z,2880
2018-05-04T11:19:19.949Z,2950
2018-05-04T11:20:29.982Z,3015
2018-05-04T11:21:40.037Z,2965
2018-05-04T11:22:50.057Z,2875
2018-05-04T11:24:00.083Z,2960
2018-05-04T11:25:09.859Z,3020
2018-05-04T11:26:19.849Z,3020
2018-05-04T11:27:29.862Z,3040
2018-05-04T11:28:39.908Z,3035
2018-05-04T11:29:49.697Z,3070
2018-05-04T11:30:59.915Z,3080
2018-05-04T11:32:09.910Z,2995
2018-05-04T11:33:19.914Z,2940
2018-05-04T11:34:30.051Z,2955
2018-05-04T11:35:40.053Z,2950
2018-05-04T11:36:50.041Z,3040
2018-05-04T11:38:00.055Z,3095
2018-05-04T11:39:10.212Z,3080
2018-05-04T11:40:20.213Z,3030
2018-05-04T11:41:30.463Z,2965
2018-05-04T11:42:40.206Z,2970
2018-05-04T11:43:50.199Z,3035
2018-05-04T11:45:00.191Z,2975
2018-05-04T11:46:10.202Z,2980
2018-05-04T11:47:20.206Z,3150
2018-05-04T11:48:30.193Z,3160
2018-05-04T11:49:40.510Z,3175
2018-05-04T11:50:50.253Z,3205
2018-05-04T11:52:00.224Z,3195
2018-05-04T11:53:10.207Z,3105
2018-05-04T11:54:20.218Z,3055
2018-05-04T11:55:30.318Z,3040
2018-05-04T11:56:40.316Z,3050
2018-05-04T11:57:50.395Z,3135
2018-05-04T11:59:00.443Z,3225
2018-05-04T12:00:10.201Z,3280
2018-05-04T12:01:20.194Z,3225
2018-05-04T12:02:30.302Z,3155
2018-05-04T12:03:40.135Z,3185
2018-05-04T12:04:50.341Z,3255
2018-05-04T12:06:00.335Z,3220
2018-05-04T12:07:10.354Z,3125
2018-05-04T12:08:20.377Z,3215
2018-05-04T12:09:30.480Z,3280
2018-05-04T12:10:40.211Z,3285
2018-05-04T12:11:50.150Z,3325
2018-05-04T12:12:59.890Z,3370
2018-05-04T12:14:09.872Z,3305
2018-05-04T12:15:19.350Z,3205
2018-05-04T12:16:28.908Z,3260
2018-05-04T12:17:38.393Z,3280
2018-05-04T12:18:48.157Z,3245
2018-05-04T12:19:58.193Z,3340
2018-05-04T12:21:07.923Z,3355
2018-05-04T12:22:17.881Z,3330
2018-05-04T12:23:27.608Z,3335
2018-05-04T12:24:37.363Z,3350
2018-05-04T12:25:47.374Z,3270
2018-05-04T12:26:57.361Z,3195
2018-05-04T12:28:07.109Z,3105
2018-05-04T12:29:16.844Z,3190
2018-05-04T12:30:26.944Z,3340
2018-05-04T12:31:36.729Z,3290
2018-05-04T12:32:46.738Z,3225
2018-05-04T12:33:56.486Z,3200
2018-05-04T12:35:06.502Z,3180
2018-05-04T12:36:16.515Z,3145
2018-05-04T12:37:26.267Z,3090
2018-05-04T12:38:36.247Z,3065
2018-05-04T12:39:45.921Z,3090
2018-05-04T12:40:55.919Z,3200
2018-05-04T12:42:05.895Z,3305
2018-05-04T12:43:15.907Z,3345
2018-05-04T12:44:25.957Z,3380
2018-05-04T12:45:35.809Z,3355
2018-05-04T12:46:45.795Z,3390
2018-05-04T12:47:55.787Z,3435
2018-05-04T12:49:05.779Z,3480
2018-05-04T12:50:15.776Z,3465
2018-05-04T12:51:25.770Z,3390
2018-05-04T12:52:35.772Z,3315
2018-05-04T12:53:46.110Z,3225
2018-05-04T12:54:56.212Z,3285
2018-05-04T12:56:06.235Z,3355
2018-05-04T12:57:16.254Z,3350
2018-05-04T12:58:26.237Z,3375
2018-05-04T12:59:35.976Z,3395
2018-05-04T13:00:45.713Z,3450
2018-05-04T13:01:55.707Z,3495
2018-05-04T13:03:05.440Z,3390
2018-05-04T13:04:15.433Z,3375
2018-05-04T13:05:25.184Z,3325
2018-05-04T13:06:34.933Z,3280
2018-05-04T13:07:44.672Z,3330
2018-05-04T13:08:54.665Z,3360
2018-05-04T13:10:04.402Z,3265
2018-05-04T13:11:14.140Z,3140
2018-05-04T13:12:24.152Z,2600
2018-05-04T13:13:34.153Z,2285
2018-05-04T13:14:43.893Z,2285
2018-05-04T13:15:53.893Z,2700
2018-05-04T13:17:03.912Z,3170
2018-05-04T13:18:13.944Z,3430
2018-05-04T13:19:23.431Z,3385
2018-05-04T13:20:33.483Z,3315
2018-05-04T13:21:43.213Z,3320
2018-05-04T13:22:53.213Z,3350
2018-05-04T13:24:03.216Z,3285
2018-05-04T13:25:13.195Z,3205
2018-05-04T13:26:22.945Z,3310
2018-05-04T13:27:32.926Z,3430
2018-05-04T13:28:42.985Z,3375
2018-05-04T13:29:52.708Z,3280
2018-05-04T13:31:02.444Z,3260
2018-05-04T13:32:12.202Z,3345
2018-05-04T13:33:22.118Z,3355
2018-05-04T13:34:31.790Z,3215
2018-05-04T13:35:41.800Z,3195
2018-05-04T13:36:51.549Z,3480
2018-05-04T13:38:01.551Z,3755
2018-05-04T13:39:11.283Z,3730
2018-05-04T13:40:21.276Z,3460
2018-05-04T13:41:31.394Z,3210
2018-05-04T13:42:41.381Z,2935
2018-05-04T13:43:51.383Z,3100
2018-05-04T13:45:01.386Z,3430
2018-05-04T13:46:11.124Z,3450
2018-05-04T13:47:21.137Z,3405
2018-05-04T13:48:31.157Z,3330
2018-05-04T13:49:40.640Z,3225
2018-05-04T13:50:50.570Z,3010
2018-05-04T13:52:00.571Z,2955
2018-05-04T13:53:10.573Z,3210
2018-05-04T13:54:20.314Z,3185
2018-05-04T13:55:30.304Z,2955
2018-05-04T13:56:40.040Z,2955
2018-05-04T13:57:50.056Z,3090
2018-05-04T13:59:00.066Z,3120
2018-05-04T14:00:10.090Z,2690
2018-05-04T14:01:20.059Z,2830
2018-05-04T14:02:30.066Z,2810
2018-05-04T14:03:40.076Z,2680
2018-05-04T14:04:50.117Z,2435
2018-05-04T14:05:59.866Z,2020
2018-05-04T14:07:09.595Z,1765
2018-05-04T14:08:19.595Z,2435
2018-05-04T14:09:29.600Z,2240
2018-05-04T14:10:39.332Z,2160
2018-05-04T14:11:49.329Z,2495
2018-05-04T14:12:59.447Z,2480
2018-05-04T14:14:09.174Z,2310
2018-05-04T14:15:19.180Z,2830
2018-05-04T14:16:29.187Z,2945
2018-05-04T14:17:39.185Z,3365
2018-05-04T14:18:49.184Z,3255
2018-05-04T14:19:58.913Z,1525
2018-05-04T14:21:08.915Z,1655
2018-05-04T14:22:18.894Z,2035
2018-05-04T14:23:28.977Z,2360
2018-05-04T14:24:38.459Z,2610
2018-05-04T14:25:48.459Z,2860
2018-05-04T14:26:58.455Z,2865
2018-05-04T14:28:08.209Z,2700
2018-05-04T14:29:17.939Z,2705
2018-05-04T14:30:27.672Z,2705
2018-05-04T14:31:37.674Z,2795
2018-05-04T14:32:47.145Z,2755
2018-05-04T14:33:57.223Z,2370
2018-05-04T14:35:07.694Z,2200
2018-05-04T14:36:17.751Z,2295
2018-05-04T14:37:27.481Z,2270
2018-05-04T14:38:37.201Z,2255
2018-05-04T14:39:47.211Z,2430
2018-05-04T14:40:57.196Z,2660
2018-05-04T14:42:07.183Z,2855
2018-05-04T14:43:16.667Z,2870
2018-05-04T14:44:26.648Z,2780
2018-05-04T14:45:37.165Z,2735
2018-05-04T14:46:46.919Z,2535
2018-05-04T14:47:56.654Z,2370
2018-05-04T14:49:06.670Z,2170
2018-05-04T14:50:16.657Z,2000
2018-05-04T14:51:26.640Z,1740
2018-05-04T14:52:36.378Z,1850
2018-05-04T14:53:46.354Z,2385
2018-05-04T14:54:56.085Z,2720
2018-05-04T14:56:06.097Z,2800
2018-05-04T14:57:16.088Z,2825
2018-05-04T14:58:26.126Z,2835
2018-05-04T14:59:35.596Z,2730
2018-05-04T15:00:45.347Z,2680
2018-05-04T15:01:55.071Z,2650
2018-05-04T15:03:04.812Z,2715
2018-05-04T15:04:15.061Z,2575
2018-05-04T15:05:25.075Z,2335
2018-05-04T15:06:34.807Z,2525
2018-05-04T15:07:44.565Z,2445
2018-05-04T15:08:54.557Z,1770
2018-05-04T15:10:04.286Z,1985
2018-05-04T15:11:13.755Z,2285
2018-05-04T15:12:23.504Z,2445
2018-05-04T15:13:33.537Z,2495
2018-05-04T15:14:43.031Z,2595
2018-05-04T15:15:52.761Z,2390
2018-05-04T15:17:02.727Z,2520
2018-05-04T15:18:12.874Z,2480
2018-05-04T15:19:22.631Z,2485
2018-05-04T15:20:32.354Z,2355
2018-05-04T15:21:42.367Z,2350
2018-05-04T15:22:52.346Z,2335
2018-05-04T15:24:02.391Z,2405
2018-05-04T15:25:12.274Z,2400
2018-05-04T15:26:22.265Z,2345
2018-05-04T15:27:32.268Z,2340
2018-05-04T15:28:42.017Z,2330
2018-05-04T15:29:51.995Z,2460
2018-05-04T15:31:01.990Z,2600
2018-05-04T15:32:11.985Z,2490
2018-05-04T15:33:21.715Z,2375
2018-05-04T15:34:31.721Z,2335
2018-05-04T15:35:41.451Z,2345
2018-05-04T15:36:51.454Z,2335
2018-05-04T15:38:01.194Z,2325
2018-05-04T15:39:11.200Z,2290
2018-05-04T15:40:21.193Z,2315
2018-05-04T15:41:31.180Z,2325
2018-05-04T15:42:41.161Z,2280
2018-05-04T15:43:51.159Z,2195
2018-05-04T15:45:01.151Z,2150
2018-05-04T15:46:11.471Z,2080
2018-05-04T15:47:21.493Z,2010
2018-05-04T15:48:31.230Z,2020
2018-05-04T15:49:40.960Z,2025
2018-05-04T15:50:50.429Z,2010
2018-05-04T15:51:59.924Z,1905
2018-05-04T15:53:09.935Z,1995
2018-05-04T15:54:19.924Z,2065
2018-05-04T15:55:29.401Z,2035
2018-05-04T15:56:39.390Z,2000
2018-05-04T15:57:49.380Z,2085
2018-05-04T15:58:59.382Z,2100
2018-05-04T16:00:09.607Z,2010
2018-05-04T16:01:19.589Z,1965